createdAt,value
2022-11-14T00:00:51.077Z,9.91
2022-11-14T00:03:37.375Z,9.57
2022-11-14T00:06:24.155Z,9.57
2022-11-14T00:09:10.525Z,10.89
2022-11-14T00:11:57.131Z,11.83
2022-11-14T00:14:43.585Z,11.57
2022-11-14T00:17:30.465Z,10.67
2022-11-14T00:20:17.295Z,9.96
2022-11-14T00:23:03.903Z,9.46
2022-11-14T00:25:50.235Z,9.09
2022-11-14T00:28:36.409Z,9.16
2022-11-14T00:31:23.151Z,10.29
2022-11-14T00:34:09.819Z,11.58
2022-11-14T00:36:56.008Z,12.13
2022-11-14T00:39:42.677Z,11.26
2022-11-14T00:42:29.346Z,10.46
2022-11-14T00:45:15.944Z,9.85
2022-11-14T00:48:02.442Z,9.39
2022-11-14T00:50:48.688Z,8.99
2022-11-14T00:53:35.096Z,9.12
2022-11-14T00:56:21.560Z,10.64
2022-11-14T00:59:08.023Z,11.84
2022-11-14T01:01:57.899Z,11.87
2022-11-14T01:04:44.383Z,11.01
2022-11-14T01:07:30.766Z,10.31
2022-11-14T01:10:17.998Z,9.72
2022-11-14T01:13:04.560Z,9.26
2022-11-14T01:15:52.140Z,9.29
2022-11-14T01:18:39.561Z,10.74
2022-11-14T01:21:26.234Z,11.66
2022-11-14T01:24:12.792Z,10.91
2022-11-14T01:26:59.521Z,10.02
2022-11-14T01:29:45.957Z,9.28
2022-11-14T01:32:32.578Z,9.11
2022-11-14T01:35:18.778Z,10.48
2022-11-14T01:38:05.790Z,11.28
2022-11-14T01:40:52.132Z,10.45
2022-11-14T01:43:39.383Z,9.53
2022-11-14T01:46:35.739Z,8.82
2022-11-14T01:49:25.086Z,8.89
2022-11-14T01:52:29.212Z,10.40
2022-11-14T01:55:15.889Z,11.13
2022-11-14T01:58:02.345Z,10.19
2022-11-14T02:00:49.226Z,9.33
2022-11-14T02:03:39.641Z,8.78
2022-11-14T02:06:29.102Z,8.83
2022-11-14T02:09:15.484Z,10.49
2022-11-14T02:12:04.265Z,11.80
2022-11-14T02:14:55.118Z,11.95
2022-11-14T02:17:42.686Z,10.89
2022-11-14T02:20:34.924Z,9.97
2022-11-14T02:23:29.228Z,9.23
2022-11-14T02:26:21.139Z,8.58
2022-11-14T02:29:08.965Z,8.73
2022-11-14T02:31:55.424Z,10.27
2022-11-14T02:34:41.955Z,11.26
2022-11-14T02:37:28.199Z,10.92
2022-11-14T02:40:14.624Z,9.96
2022-11-14T02:43:01.391Z,9.19
2022-11-14T02:45:47.600Z,9.04
2022-11-14T02:48:34.456Z,10.34
2022-11-14T02:51:20.940Z,11.31
2022-11-14T02:54:07.941Z,11.04
2022-11-14T02:56:54.470Z,10.07
2022-11-14T02:59:40.972Z,9.30
2022-11-14T03:02:27.573Z,9.13
2022-11-14T03:05:14.115Z,10.35
2022-11-14T03:08:00.203Z,11.33
2022-11-14T03:10:47.800Z,11.31
2022-11-14T03:13:34.195Z,10.33
2022-11-14T03:16:20.768Z,9.48
2022-11-14T03:19:07.309Z,8.82
2022-11-14T03:21:53.882Z,8.73
2022-11-14T03:24:40.087Z,10.03
2022-11-14T03:27:26.632Z,10.84
2022-11-14T03:30:13.246Z,11.38
2022-11-14T03:32:59.686Z,11.67
2022-11-14T03:35:46.182Z,10.64
2022-11-14T03:38:33.921Z,9.65
2022-11-14T03:41:20.282Z,8.93
2022-11-14T03:44:06.745Z,8.97
2022-11-14T03:46:53.269Z,10.37
2022-11-14T03:49:40.453Z,11.53
2022-11-14T03:52:26.869Z,11.82
2022-11-14T03:55:13.550Z,10.84
2022-11-14T03:57:59.839Z,9.95
2022-11-14T04:00:46.236Z,9.31
2022-11-14T04:03:32.512Z,9.16
2022-11-14T04:06:18.678Z,10.47
2022-11-14T04:09:06.259Z,11.68
2022-11-14T04:11:53.085Z,11.67
2022-11-14T04:14:39.830Z,10.69
2022-11-14T04:17:26.606Z,9.86
2022-11-14T04:20:15.827Z,9.23
2022-11-14T04:23:02.539Z,9.25
2022-11-14T04:25:49.141Z,10.48
2022-11-14T04:28:35.642Z,11.26
2022-11-14T04:31:22.192Z,10.84
2022-11-14T04:34:08.627Z,9.78
2022-11-14T04:36:55.023Z,8.96
2022-11-14T04:39:41.670Z,8.89
2022-11-14T04:42:28.225Z,10.21
2022-11-14T04:45:14.904Z,11.19
2022-11-14T04:48:01.909Z,11.48
2022-11-14T04:50:48.733Z,10.57
2022-11-14T04:53:35.417Z,9.61
2022-11-14T04:56:23.391Z,8.95
2022-11-14T04:59:09.958Z,9.04
2022-11-14T05:01:56.944Z,10.56
2022-11-14T05:04:45.795Z,11.75
2022-11-14T05:07:32.577Z,11.71
2022-11-14T05:10:19.430Z,10.69
2022-11-14T05:13:06.188Z,9.72
2022-11-14T05:15:52.987Z,9.47
2022-11-14T05:18:44.361Z,10.71
2022-11-14T05:21:33.271Z,11.56
2022-11-14T05:24:20.917Z,11.39
2022-11-14T05:27:07.494Z,10.32
2022-11-14T05:29:55.232Z,9.44
2022-11-14T05:32:41.897Z,9.22
2022-11-14T05:35:28.711Z,10.32
2022-11-14T05:38:15.149Z,11.25
2022-11-14T05:41:09.241Z,11.84
2022-11-14T05:43:55.815Z,11.58
2022-11-14T05:46:42.540Z,10.52
2022-11-14T05:49:28.882Z,9.67
2022-11-14T05:52:15.773Z,9.49
2022-11-14T05:55:02.181Z,10.76
2022-11-14T05:57:48.789Z,11.77
2022-11-14T06:00:42.403Z,12.02
2022-11-14T06:03:34.821Z,11.04
2022-11-14T06:06:22.031Z,10.14
2022-11-14T06:09:08.677Z,9.82
2022-11-14T06:11:55.130Z,10.90
2022-11-14T06:14:41.859Z,11.78
2022-11-14T06:17:28.622Z,12.07
2022-11-14T06:20:15.850Z,11.07
2022-11-14T06:23:02.301Z,10.10
2022-11-14T06:25:48.697Z,9.40
2022-11-14T06:28:35.508Z,9.77
2022-11-14T06:31:22.965Z,11.17
2022-11-14T06:34:11.325Z,12.06
2022-11-14T06:36:58.204Z,11.97
2022-11-14T06:39:44.860Z,10.81
2022-11-14T06:42:31.378Z,9.84
2022-11-14T06:45:18.045Z,9.61
2022-11-14T06:48:04.569Z,10.90
2022-11-14T06:50:55.044Z,11.98
2022-11-14T06:53:42.258Z,12.10
2022-11-14T06:56:29.721Z,11.05
2022-11-14T06:59:16.333Z,10.14
2022-11-14T07:02:03.022Z,9.98
2022-11-14T07:04:49.454Z,11.28
2022-11-14T07:07:36.115Z,12.42
2022-11-14T07:10:22.603Z,12.65
2022-11-14T07:13:11.480Z,11.58
2022-11-14T07:15:58.320Z,10.66
2022-11-14T07:18:44.773Z,9.97
2022-11-14T07:21:32.106Z,10.27
2022-11-14T07:24:18.913Z,11.37
2022-11-14T07:27:08.890Z,12.13
2022-11-14T07:29:54.963Z,12.50
2022-11-14T07:32:41.709Z,11.58
2022-11-14T07:35:28.229Z,10.60
2022-11-14T07:38:14.569Z,9.86
2022-11-14T07:41:03.767Z,10.30
2022-11-14T07:43:50.523Z,11.43
2022-11-14T07:46:37.594Z,12.19
2022-11-14T07:49:23.952Z,12.44
2022-11-14T07:52:10.601Z,11.53
2022-11-14T07:54:57.322Z,10.68
2022-11-14T07:57:47.931Z,10.42
2022-11-14T08:00:35.937Z,11.56
2022-11-14T08:03:22.537Z,12.54
2022-11-14T08:06:11.432Z,12.53
2022-11-14T08:08:57.906Z,11.58
2022-11-14T08:11:50.111Z,10.79
2022-11-14T08:14:36.575Z,10.14
2022-11-14T08:17:24.000Z,10.15
2022-11-14T08:20:10.904Z,11.53
2022-11-14T08:23:05.040Z,12.36
2022-11-14T08:25:52.227Z,12.49
2022-11-14T08:28:39.119Z,11.58
2022-11-14T08:31:25.584Z,10.70
2022-11-14T08:34:12.020Z,10.49
2022-11-14T08:36:59.032Z,11.44
2022-11-14T08:39:45.372Z,12.21
2022-11-14T08:42:31.901Z,12.42
2022-11-14T08:45:18.458Z,11.54
2022-11-14T08:48:05.890Z,10.77
2022-11-14T08:50:52.969Z,10.27
2022-11-14T08:53:39.508Z,10.30
2022-11-14T08:56:25.867Z,11.52
2022-11-14T08:59:12.433Z,12.67
2022-11-14T09:01:58.953Z,13.11
2022-11-14T09:04:45.496Z,12.23
2022-11-14T09:07:32.592Z,11.37
2022-11-14T09:10:19.406Z,10.79
2022-11-14T09:13:05.553Z,10.85
2022-11-14T09:15:52.030Z,12.34
2022-11-14T09:18:38.994Z,13.47
2022-11-14T09:21:25.590Z,13.22
2022-11-14T09:24:12.048Z,12.30
2022-11-14T09:26:58.961Z,11.63
2022-11-14T09:29:45.640Z,11.14
2022-11-14T09:32:32.368Z,11.19
2022-11-14T09:35:19.215Z,12.48
2022-11-14T09:38:08.302Z,13.53
2022-11-14T09:41:09.043Z,13.84
2022-11-14T09:44:21.123Z,12.94
2022-11-14T09:47:20.502Z,12.05
2022-11-14T09:50:25.416Z,11.45
2022-11-14T09:53:23.090Z,11.00
2022-11-14T09:56:13.695Z,11.24
2022-11-14T09:59:00.732Z,12.72
2022-11-14T10:02:06.476Z,13.86
2022-11-14T10:05:09.555Z,13.67
2022-11-14T10:08:21.472Z,12.70
2022-11-14T10:11:20.169Z,12.01
2022-11-14T10:14:22.315Z,11.55
2022-11-14T10:17:32.706Z,11.96
2022-11-14T10:20:34.329Z,13.70
2022-11-14T10:23:48.711Z,14.23
2022-11-14T10:26:38.695Z,13.17
2022-11-14T10:30:03.422Z,12.42
2022-11-14T10:33:23.283Z,11.88
2022-11-14T10:36:44.511Z,11.61
2022-11-14T10:39:40.404Z,11.68
2022-11-14T10:42:35.974Z,12.27
2022-11-14T10:45:38.291Z,14.13
2022-11-14T10:48:31.656Z,14.82
2022-11-14T10:51:41.464Z,14.40
2022-11-14T10:54:37.203Z,14.14
2022-11-14T10:57:23.613Z,13.99
2022-11-14T11:00:20.252Z,13.77
2022-11-14T11:03:07.611Z,13.73
2022-11-14T11:05:57.941Z,13.73
2022-11-14T11:09:03.435Z,13.70
2022-11-14T11:12:04.118Z,13.70
2022-11-14T11:15:08.443Z,13.74
2022-11-14T11:18:19.320Z,13.78
2022-11-14T11:21:09.194Z,13.94
2022-11-14T11:23:57.548Z,14.04
2022-11-14T11:26:44.131Z,14.13
2022-11-14T11:29:30.741Z,14.25
2022-11-14T11:32:26.747Z,14.39
2022-11-14T11:35:14.985Z,14.42
2022-11-14T11:38:02.893Z,14.44
2022-11-14T11:40:54.547Z,14.41
2022-11-14T11:43:57.031Z,14.42
2022-11-14T11:46:48.099Z,14.53
2022-11-14T11:49:48.629Z,14.72
2022-11-14T11:52:46.295Z,14.97
2022-11-14T11:55:34.690Z,15.14
2022-11-14T11:58:29.653Z,15.22
2022-11-14T12:01:16.467Z,15.29
2022-11-14T12:04:04.272Z,15.34
2022-11-14T12:07:08.628Z,15.46
2022-11-14T12:10:11.452Z,15.65
2022-11-14T12:13:21.882Z,15.90
2022-11-14T12:16:20.158Z,16.08
2022-11-14T12:19:31.432Z,16.23
2022-11-14T12:22:17.893Z,16.31
2022-11-14T12:25:32.834Z,16.38
2022-11-14T12:29:07.285Z,16.49
2022-11-14T12:31:57.956Z,16.67
2022-11-14T12:34:46.353Z,16.79
2022-11-14T12:37:35.362Z,16.86
2022-11-14T12:40:41.779Z,16.96
2022-11-14T12:43:45.124Z,16.98
2022-11-14T12:47:06.786Z,16.90
2022-11-14T12:49:52.903Z,16.93
2022-11-14T12:52:44.547Z,16.96
2022-11-14T12:55:30.662Z,17.02
2022-11-14T12:58:28.841Z,17.08
2022-11-14T13:01:15.063Z,17.17
2022-11-14T13:04:01.754Z,17.28
2022-11-14T13:07:14.176Z,17.38
2022-11-14T13:10:09.720Z,17.50
2022-11-14T13:13:32.350Z,17.69
2022-11-14T13:16:46.025Z,17.98
2022-11-14T13:19:55.390Z,18.22
2022-11-14T13:22:43.893Z,18.55
2022-11-14T13:25:30.585Z,18.83
2022-11-14T13:28:38.636Z,19.06
2022-11-14T13:31:47.007Z,19.28
2022-11-14T13:34:40.747Z,19.51
2022-11-14T13:37:58.685Z,19.83
2022-11-14T13:40:57.215Z,20.04
2022-11-14T13:43:52.779Z,20.19
2022-11-14T13:46:57.715Z,20.31
2022-11-14T13:49:52.897Z,20.45
2022-11-14T13:52:47.812Z,20.63
2022-11-14T13:55:52.464Z,20.80
2022-11-14T13:59:24.463Z,20.91
2022-11-14T14:02:10.758Z,21.02
2022-11-14T14:05:03.199Z,21.06
2022-11-14T14:08:14.179Z,21.12
2022-11-14T14:11:25.547Z,21.19
2022-11-14T14:14:17.998Z,21.20
2022-11-14T14:17:07.691Z,21.22
2022-11-14T14:20:18.606Z,21.20
2022-11-14T14:23:16.959Z,21.18
2022-11-14T14:26:31.600Z,21.10
2022-11-14T14:29:46.386Z,20.90
2022-11-14T14:32:33.393Z,20.70
2022-11-14T14:35:22.548Z,20.58
2022-11-14T14:38:14.314Z,20.46
2022-11-14T14:41:01.139Z,20.23
2022-11-14T14:43:54.125Z,19.63
2022-11-14T14:46:40.461Z,18.78
2022-11-14T14:49:32.723Z,18.02
2022-11-14T14:52:37.665Z,17.40
2022-11-14T14:55:27.071Z,16.78
2022-11-14T14:58:23.140Z,16.20
2022-11-14T15:01:12.210Z,15.67
2022-11-14T15:04:04.100Z,15.26
2022-11-14T15:06:51.615Z,14.88
2022-11-14T15:09:38.177Z,14.52
2022-11-14T15:12:26.500Z,14.20
2022-11-14T15:15:14.187Z,13.91
2022-11-14T15:18:02.902Z,13.65
2022-11-14T15:21:09.105Z,13.41
2022-11-14T15:24:00.649Z,13.16
2022-11-14T15:26:51.604Z,12.94
2022-11-14T15:29:48.054Z,12.77
2022-11-14T15:32:34.476Z,12.63
2022-11-14T15:35:25.020Z,12.86
2022-11-14T15:38:54.146Z,14.59
2022-11-14T15:41:23.466Z,15.62
2022-11-14T15:44:33.314Z,14.91
2022-11-14T15:47:27.929Z,14.11
2022-11-14T15:50:14.573Z,13.59
2022-11-14T15:53:04.021Z,13.22
2022-11-14T15:55:51.009Z,12.94
2022-11-14T15:58:37.568Z,12.70
2022-11-14T16:01:27.665Z,12.51
2022-11-14T16:04:17.951Z,12.88
2022-11-14T16:07:05.973Z,14.66
2022-11-14T16:09:52.235Z,15.93
2022-11-14T16:12:38.627Z,16.31
2022-11-14T16:15:24.906Z,15.47
2022-11-14T16:18:11.963Z,14.66
2022-11-14T16:20:59.507Z,14.07
2022-11-14T16:23:46.094Z,13.65
2022-11-14T16:26:33.052Z,13.29
2022-11-14T16:29:20.206Z,12.97
2022-11-14T16:32:10.355Z,12.71
2022-11-14T16:34:56.859Z,12.90
2022-11-14T16:37:43.680Z,14.26
2022-11-14T16:40:30.115Z,15.35
2022-11-14T16:43:16.644Z,15.62
2022-11-14T16:46:05.070Z,14.74
2022-11-14T16:48:51.779Z,13.95
2022-11-14T16:51:48.422Z,13.37
2022-11-14T16:54:36.771Z,12.89
2022-11-14T16:57:23.635Z,12.51
2022-11-14T17:00:12.597Z,12.60
2022-11-14T17:02:59.720Z,14.04
2022-11-14T17:05:48.543Z,15.23
2022-11-14T17:08:35.938Z,15.50
2022-11-14T17:11:23.221Z,14.64
2022-11-14T17:14:10.848Z,13.87
2022-11-14T17:17:01.428Z,13.27
2022-11-14T17:19:48.428Z,12.85
2022-11-14T17:22:35.259Z,12.54
2022-11-14T17:25:22.898Z,12.29
2022-11-14T17:28:09.443Z,12.40
2022-11-14T17:30:56.448Z,13.71
2022-11-14T17:33:53.764Z,14.71
2022-11-14T17:36:40.792Z,14.91
2022-11-14T17:39:27.432Z,14.10
2022-11-14T17:42:14.213Z,13.36
2022-11-14T17:45:01.068Z,12.79
2022-11-14T17:47:47.336Z,12.36
2022-11-14T17:50:38.959Z,12.44
2022-11-14T17:53:25.394Z,13.82
2022-11-14T17:56:15.108Z,14.79
2022-11-14T17:59:07.335Z,15.08
2022-11-14T18:01:55.943Z,14.27
2022-11-14T18:04:42.694Z,13.47
2022-11-14T18:07:30.358Z,12.94
2022-11-14T18:10:17.299Z,12.56
2022-11-14T18:13:05.107Z,12.24
2022-11-14T18:15:52.124Z,12.35
2022-11-14T18:18:40.642Z,13.81
2022-11-14T18:21:27.182Z,15.06
2022-11-14T18:24:14.730Z,15.22
2022-11-14T18:27:01.393Z,14.33
2022-11-14T18:29:47.555Z,13.57
2022-11-14T18:32:34.135Z,13.04
2022-11-14T18:35:20.416Z,12.63
2022-11-14T18:38:06.699Z,12.29
2022-11-14T18:40:57.293Z,12.00
2022-11-14T18:43:47.205Z,12.24
2022-11-14T18:46:37.412Z,13.86
2022-11-14T18:49:25.284Z,14.93
2022-11-14T18:52:17.156Z,14.47
2022-11-14T18:55:05.521Z,13.52
2022-11-14T18:57:52.693Z,12.85
2022-11-14T19:00:39.504Z,12.35
2022-11-14T19:03:26.022Z,11.96
2022-11-14T19:06:13.170Z,12.10
2022-11-14T19:09:05.572Z,13.56
2022-11-14T19:12:13.610Z,14.80
2022-11-14T19:15:02.138Z,14.83
2022-11-14T19:17:48.764Z,13.90
2022-11-14T19:20:35.044Z,13.19
2022-11-14T19:23:21.287Z,12.65
2022-11-14T19:26:08.472Z,12.20
2022-11-14T19:28:55.303Z,11.83
2022-11-14T19:31:43.308Z,11.49
2022-11-14T19:34:30.159Z,11.66
2022-11-14T19:37:16.420Z,13.20
2022-11-14T19:40:03.710Z,14.41
2022-11-14T19:42:53.398Z,14.84
2022-11-14T19:45:40.388Z,13.91
2022-11-14T19:48:27.382Z,13.01
2022-11-14T19:51:17.207Z,12.35
2022-11-14T19:54:03.960Z,11.87
2022-11-14T19:56:50.373Z,11.54
2022-11-14T19:59:36.985Z,11.23
2022-11-14T20:02:25.842Z,11.40
2022-11-14T20:05:12.733Z,12.90
2022-11-14T20:08:42.397Z,14.15
2022-11-14T20:12:07.395Z,14.30
2022-11-14T20:15:38.470Z,13.09
2022-11-14T20:21:41.827Z,11.91
2022-11-14T20:28:18.546Z,11.28
2022-11-14T20:30:50.628Z,11.10
2022-11-14T20:33:39.397Z,11.35
2022-11-14T20:36:31.953Z,12.94
2022-11-14T20:39:22.366Z,13.78
2022-11-14T20:42:08.861Z,13.13
2022-11-14T20:44:56.076Z,12.40
2022-11-14T20:47:42.588Z,11.87
2022-11-14T20:50:30.099Z,11.44
2022-11-14T20:53:16.777Z,11.09
2022-11-14T20:56:04.237Z,10.80
2022-11-14T20:58:54.639Z,10.55
2022-11-14T21:01:43.930Z,10.34
2022-11-14T21:04:30.705Z,10.52
2022-11-14T21:07:17.297Z,11.88
2022-11-14T21:10:22.932Z,13.18
2022-11-14T21:13:28.231Z,13.30
2022-11-14T21:16:17.479Z,12.36
2022-11-14T21:19:05.554Z,11.73
2022-11-14T21:21:52.309Z,11.28
2022-11-14T21:24:39.873Z,10.91
2022-11-14T21:27:26.884Z,10.60
2022-11-14T21:30:13.487Z,10.31
2022-11-14T21:33:00.120Z,10.05
2022-11-14T21:35:46.437Z,9.81
2022-11-14T21:38:33.047Z,9.59
2022-11-14T21:41:21.199Z,9.42
2022-11-14T21:44:11.063Z,9.27
2022-11-14T21:46:57.708Z,9.50
2022-11-14T21:49:44.523Z,11.04
2022-11-14T21:52:33.486Z,12.39
2022-11-14T21:55:20.084Z,12.94
2022-11-14T21:58:09.804Z,12.14
2022-11-14T22:01:04.121Z,11.31
2022-11-14T22:04:09.758Z,10.75
2022-11-14T22:06:56.830Z,10.36
2022-11-14T22:09:45.451Z,10.47
2022-11-14T22:12:35.215Z,11.84
2022-11-14T22:15:21.590Z,12.86
2022-11-14T22:18:08.019Z,12.97
2022-11-14T22:20:55.624Z,12.16
2022-11-14T22:23:43.857Z,11.44
2022-11-14T22:26:30.856Z,10.90
2022-11-14T22:29:17.731Z,10.50
2022-11-14T22:32:04.554Z,10.58
2022-11-14T22:34:50.993Z,12.02
2022-11-14T22:37:37.368Z,13.04
2022-11-14T22:40:23.926Z,12.78
2022-11-14T22:43:10.555Z,11.90
2022-11-14T22:45:57.784Z,11.23
2022-11-14T22:48:45.259Z,10.77
2022-11-14T22:51:31.886Z,10.39
2022-11-14T22:54:19.679Z,10.08
2022-11-14T22:57:05.990Z,10.23
2022-11-14T22:59:52.736Z,11.58
2022-11-14T23:02:39.363Z,12.70
2022-11-14T23:05:25.671Z,12.81
2022-11-14T23:08:14.731Z,11.94
2022-11-14T23:11:04.532Z,11.18
2022-11-14T23:13:52.837Z,10.61
2022-11-14T23:16:39.412Z,10.21
2022-11-14T23:19:25.767Z,10.30
2022-11-14T23:22:12.241Z,11.64
2022-11-14T23:24:58.717Z,12.94
2022-11-14T23:27:45.068Z,13.29
2022-11-14T23:30:31.603Z,12.35
2022-11-14T23:33:18.013Z,11.49
2022-11-14T23:36:04.445Z,10.84
2022-11-14T23:38:54.289Z,10.39
2022-11-14T23:41:40.599Z,10.04
2022-11-14T23:44:26.867Z,9.72
2022-11-14T23:47:13.157Z,9.85
2022-11-14T23:49:59.657Z,11.03
2022-11-14T23:52:46.527Z,11.90
2022-11-14T23:55:34.601Z,12.59
2022-11-14T23:58:22.201Z,12.40
